sensor_id;sensor_type;location;lat;lon;timestamp;pressure;altitude;pressure_sealevel;temperature;humidity
11184;BME280;5648;43.628;22.684;2022-10-17T00:00:42;96616.97;;;9.22;100.00
11184;BME280;5648;43.628;22.684;2022-10-17T00:03:08;96618.63;;;9.23;100.00
11184;BME280;5648;43.628;22.684;2022-10-17T00:05:33;96608.91;;;9.23;100.00
11184;BME280;5648;43.628;22.684;2022-10-17T00:07:59;96610.72;;;9.15;100.00
11184;BME280;5648;43.628;22.684;2022-10-17T00:10:24;96620.94;;;9.18;100.00
11184;BME280;5648;43.628;22.684;2022-10-17T00:12:51;96622.59;;;9.19;100.00
11184;BME280;5648;43.628;22.684;2022-10-17T00:15:18;96620.09;;;9.09;100.00
11184;BME280;5648;43.628;22.684;2022-10-17T00:17:44;96624.41;;;9.18;100.00
11184;BME280;5648;43.628;22.684;2022-10-17T00:20:11;96630.50;;;9.19;100.00
11184;BME280;5648;43.628;22.684;2022-10-17T00:22:36;96630.66;;;9.17;100.00
11184;BME280;5648;43.628;22.684;2022-10-17T00:25:03;96635.13;;;9.17;100.00
11184;BME280;5648;43.628;22.684;2022-10-17T00:27:28;96622.38;;;9.12;100.00
11184;BME280;5648;43.628;22.684;2022-10-17T00:29:54;96617.13;;;9.12;100.00
11184;BME280;5648;43.628;22.684;2022-10-17T00:32:19;96626.34;;;9.08;100.00
11184;BME280;5648;43.628;22.684;2022-10-17T00:34:45;96619.91;;;9.11;100.00
11184;BME280;5648;43.628;22.684;2022-10-17T00:37:11;96623.88;;;9.07;100.00
11184;BME280;5648;43.628;22.684;2022-10-17T00:39:36;96624.69;;;9.07;100.00
11184;BME280;5648;43.628;22.684;2022-10-17T00:42:02;96617.94;;;9.05;100.00
11184;BME280;5648;43.628;22.684;2022-10-17T00:47:03;96621.56;;;9.04;100.00
11184;BME280;5648;43.628;22.684;2022-10-17T00:49:32;96623.91;;;9.15;100.00
11184;BME280;5648;43.628;22.684;2022-10-17T00:52:02;96621.06;;;9.08;100.00
11184;BME280;5648;43.628;22.684;2022-10-17T00:54:33;96618.59;;;9.07;100.00
11184;BME280;5648;43.628;22.684;2022-10-17T00:57:01;96618.09;;;9.03;100.00
11184;BME280;5648;43.628;22.684;2022-10-17T00:59:27;96611.50;;;9.07;100.00
11184;BME280;5648;43.628;22.684;2022-10-17T01:02:04;96617.09;;;9.04;100.00
11184;BME280;5648;43.628;22.684;2022-10-17T01:04:30;96614.63;;;9.11;100.00
11184;BME280;5648;43.628;22.684;2022-10-17T01:06:56;96616.13;;;9.05;100.00
11184;BME280;5648;43.628;22.684;2022-10-17T01:09:22;96613.31;;;9.07;100.00
11184;BME280;5648;43.628;22.684;2022-10-17T01:14:41;96606.72;;;9.03;100.00
11184;BME280;5648;43.628;22.684;2022-10-17T01:17:17;96618.44;;;9.08;100.00
11184;BME280;5648;43.628;22.684;2022-10-17T01:20:02;96616.94;;;9.06;100.00
11184;BME280;5648;43.628;22.684;2022-10-17T01:27:59;96621.53;;;8.96;100.00
11184;BME280;5648;43.628;22.684;2022-10-17T01:33:31;96622.84;;;8.91;100.00
11184;BME280;5648;43.628;22.684;2022-10-17T01:36:11;96611.91;;;8.86;100.00
11184;BME280;5648;43.628;22.684;2022-10-17T01:38:48;96612.53;;;8.72;100.00
11184;BME280;5648;43.628;22.684;2022-10-17T01:43:57;96615.03;;;8.82;100.00
11184;BME280;5648;43.628;22.684;2022-10-17T01:46:36;96620.69;;;8.87;100.00
11184;BME280;5648;43.628;22.684;2022-10-17T01:49:03;96616.91;;;8.89;100.00
11184;BME280;5648;43.628;22.684;2022-10-17T01:51:35;96624.66;;;8.91;100.00
11184;BME280;5648;43.628;22.684;2022-10-17T01:56:50;96627.69;;;8.70;100.00
11184;BME280;5648;43.628;22.684;2022-10-17T01:59:28;96625.09;;;8.78;100.00
11184;BME280;5648;43.628;22.684;2022-10-17T02:01:56;96621.31;;;8.81;100.00
11184;BME280;5648;43.628;22.684;2022-10-17T02:04:24;96625.31;;;8.93;100.00
11184;BME280;5648;43.628;22.684;2022-10-17T02:06:52;96632.84;;;8.80;100.00
11184;BME280;5648;43.628;22.684;2022-10-17T02:09:22;96631.06;;;8.88;100.00
11184;BME280;5648;43.628;22.684;2022-10-17T02:11:59;96638.66;;;8.91;100.00
11184;BME280;5648;43.628;22.684;2022-10-17T02:23:18;96647.69;;;8.81;100.00
11184;BME280;5648;43.628;22.684;2022-10-17T02:25:51;96647.19;;;8.85;100.00
11184;BME280;5648;43.628;22.684;2022-10-17T02:29:21;96637.84;;;8.91;100.00
11184;BME280;5648;43.628;22.684;2022-10-17T02:31:19;96642.63;;;8.96;100.00
11184;BME280;5648;43.628;22.684;2022-10-17T02:33:49;96647.72;;;8.89;100.00
11184;BME280;5648;43.628;22.684;2022-10-17T02:36:21;96651.84;;;8.91;100.00
11184;BME280;5648;43.628;22.684;2022-10-17T02:39:14;96651.34;;;8.88;100.00
11184;BME280;5648;43.628;22.684;2022-10-17T02:41:42;96650.38;;;8.89;100.00
11184;BME280;5648;43.628;22.684;2022-10-17T02:44:09;96645.53;;;8.84;100.00
11184;BME280;5648;43.628;22.684;2022-10-17T02:46:37;96651.84;;;8.91;100.00
11184;BME280;5648;43.628;22.684;2022-10-17T02:49:15;96652.66;;;8.92;100.00
11184;BME280;5648;43.628;22.684;2022-10-17T02:52:44;96661.59;;;8.99;100.00
11184;BME280;5648;43.628;22.684;2022-10-17T02:54:44;96661.56;;;8.91;100.00
11184;BME280;5648;43.628;22.684;2022-10-17T02:57:22;96670.31;;;8.91;100.00
11184;BME280;5648;43.628;22.684;2022-10-17T02:59:50;96656.91;;;8.85;100.00
11184;BME280;5648;43.628;22.684;2022-10-17T03:02:16;96671.75;;;8.86;100.00
11184;BME280;5648;43.628;22.684;2022-10-17T03:04:46;96666.13;;;8.81;100.00
11184;BME280;5648;43.628;22.684;2022-10-17T03:07:11;96677.19;;;8.84;100.00
11184;BME280;5648;43.628;22.684;2022-10-17T03:09:37;96666.47;;;8.86;100.00
11184;BME280;5648;43.628;22.684;2022-10-17T03:12:03;96664.47;;;8.80;100.00
11184;BME280;5648;43.628;22.684;2022-10-17T03:14:28;96671.72;;;8.78;100.00
11184;BME280;5648;43.628;22.684;2022-10-17T03:16:54;96677.00;;;8.78;100.00
11184;BME280;5648;43.628;22.684;2022-10-17T03:19:19;96671.09;;;8.84;100.00
11184;BME280;5648;43.628;22.684;2022-10-17T03:21:45;96681.47;;;8.85;100.00
11184;BME280;5648;43.628;22.684;2022-10-17T03:24:10;96668.44;;;8.76;100.00
11184;BME280;5648;43.628;22.684;2022-10-17T03:26:36;96677.84;;;8.78;100.00
11184;BME280;5648;43.628;22.684;2022-10-17T03:29:02;96673.63;;;8.59;100.00
11184;BME280;5648;43.628;22.684;2022-10-17T03:31:27;96682.94;;;8.46;100.00
11184;BME280;5648;43.628;22.684;2022-10-17T03:33:53;96676.53;;;8.48;100.00
11184;BME280;5648;43.628;22.684;2022-10-17T03:36:19;96672.91;;;8.49;100.00
11184;BME280;5648;43.628;22.684;2022-10-17T03:38:45;96696.03;;;8.63;100.00
11184;BME280;5648;43.628;22.684;2022-10-17T03:41:10;96695.31;;;8.53;100.00
11184;BME280;5648;43.628;22.684;2022-10-17T03:43:36;96692.84;;;8.52;100.00
11184;BME280;5648;43.628;22.684;2022-10-17T03:46:02;96689.53;;;8.50;100.00
11184;BME280;5648;43.628;22.684;2022-10-17T03:48:29;96699.03;;;8.43;100.00
11184;BME280;5648;43.628;22.684;2022-10-17T03:51:04;96699.84;;;8.43;100.00
11184;BME280;5648;43.628;22.684;2022-10-17T03:53:30;96702.03;;;8.30;100.00
11184;BME280;5648;43.628;22.684;2022-10-17T03:55:56;96693.19;;;8.31;100.00
11184;BME280;5648;43.628;22.684;2022-10-17T03:58:22;96702.34;;;8.27;100.00
11184;BME280;5648;43.628;22.684;2022-10-17T04:00:47;96696.09;;;8.28;100.00
11184;BME280;5648;43.628;22.684;2022-10-17T04:03:16;96699.72;;;8.27;100.00
11184;BME280;5648;43.628;22.684;2022-10-17T04:05:41;96704.41;;;8.15;100.00
11184;BME280;5648;43.628;22.684;2022-10-17T04:08:07;96705.03;;;8.09;100.00
11184;BME280;5648;43.628;22.684;2022-10-17T04:10:32;96702.53;;;8.08;100.00
11184;BME280;5648;43.628;22.684;2022-10-17T04:12:58;96708.56;;;8.00;100.00
11184;BME280;5648;43.628;22.684;2022-10-17T04:15:23;96711.03;;;8.01;100.00
11184;BME280;5648;43.628;22.684;2022-10-17T04:17:49;96706.03;;;7.90;100.00
11184;BME280;5648;43.628;22.684;2022-10-17T04:20:14;96714.38;;;7.86;100.00
11184;BME280;5648;43.628;22.684;2022-10-17T04:22:40;96714.81;;;7.81;100.00
11184;BME280;5648;43.628;22.684;2022-10-17T04:25:05;96711.81;;;7.76;100.00
11184;BME280;5648;43.628;22.684;2022-10-17T04:27:31;96722.50;;;7.74;100.00
11184;BME280;5648;43.628;22.684;2022-10-17T04:29:56;96707.66;;;7.73;100.00
11184;BME280;5648;43.628;22.684;2022-10-17T04:32:22;96716.13;;;7.77;100.00
11184;BME280;5648;43.628;22.684;2022-10-17T04:34:48;96717.47;;;7.81;100.00
11184;BME280;5648;43.628;22.684;2022-10-17T04:37:14;96716.16;;;7.85;100.00
11184;BME280;5648;43.628;22.684;2022-10-17T04:39:39;96720.53;;;7.94;100.00
11184;BME280;5648;43.628;22.684;2022-10-17T04:42:05;96719.25;;;7.98;100.00
11184;BME280;5648;43.628;22.684;2022-10-17T04:44:30;96725.28;;;7.91;100.00
11184;BME280;5648;43.628;22.684;2022-10-17T04:46:57;96725.44;;;7.89;100.00
11184;BME280;5648;43.628;22.684;2022-10-17T04:49:23;96725.50;;;7.97;100.00
11184;BME280;5648;43.628;22.684;2022-10-17T04:51:48;96727.47;;;7.95;100.00
11184;BME280;5648;43.628;22.684;2022-10-17T04:54:14;96727.94;;;7.91;100.00
11184;BME280;5648;43.628;22.684;2022-10-17T04:56:40;96731.22;;;7.93;100.00
11184;BME280;5648;43.628;22.684;2022-10-17T04:59:05;96736.19;;;7.96;100.00
11184;BME280;5648;43.628;22.684;2022-10-17T05:01:30;96733.56;;;7.96;100.00
11184;BME280;5648;43.628;22.684;2022-10-17T05:03:56;96742.94;;;7.98;100.00
11184;BME280;5648;43.628;22.684;2022-10-17T05:06:24;96742.94;;;7.98;100.00
11184;BME280;5648;43.628;22.684;2022-10-17T05:08:50;96740.47;;;7.97;100.00
11184;BME280;5648;43.628;22.684;2022-10-17T05:11:23;96753.88;;;8.03;100.00
11184;BME280;5648;43.628;22.684;2022-10-17T05:13:54;96745.16;;;8.03;100.00
11184;BME280;5648;43.628;22.684;2022-10-17T05:16:20;96749.59;;;8.02;100.00
11184;BME280;5648;43.628;22.684;2022-10-17T05:18:50;96753.72;;;8.05;100.00
11184;BME280;5648;43.628;22.684;2022-10-17T05:21:16;96758.84;;;8.07;100.00
11184;BME280;5648;43.628;22.684;2022-10-17T05:23:41;96763.81;;;8.10;100.00
11184;BME280;5648;43.628;22.684;2022-10-17T05:26:07;96754.88;;;8.02;100.00
11184;BME280;5648;43.628;22.684;2022-10-17T05:28:33;96758.38;;;8.11;100.00
11184;BME280;5648;43.628;22.684;2022-10-17T05:31:04;96762.22;;;8.17;100.00
11184;BME280;5648;43.628;22.684;2022-10-17T05:33:30;96765.44;;;8.11;100.00
11184;BME280;5648;43.628;22.684;2022-10-17T05:35:56;96776.06;;;8.19;100.00
11184;BME280;5648;43.628;22.684;2022-10-17T05:38:21;96773.13;;;8.22;100.00
11184;BME280;5648;43.628;22.684;2022-10-17T05:40:47;96771.78;;;8.18;100.00
11184;BME280;5648;43.628;22.684;2022-10-17T05:43:12;96773.88;;;8.14;100.00
11184;BME280;5648;43.628;22.684;2022-10-17T05:45:39;96775.53;;;8.15;100.00
11184;BME280;5648;43.628;22.684;2022-10-17T05:48:05;96777.94;;;8.26;100.00
11184;BME280;5648;43.628;22.684;2022-10-17T05:50:31;96780.41;;;8.28;100.00
11184;BME280;5648;43.628;22.684;2022-10-17T05:52:56;96779.84;;;8.34;100.00
11184;BME280;5648;43.628;22.684;2022-10-17T05:55:22;96782.09;;;8.47;100.00
11184;BME280;5648;43.628;22.684;2022-10-17T05:57:48;96791.44;;;8.41;100.00
11184;BME280;5648;43.628;22.684;2022-10-17T06:00:15;96779.66;;;8.53;100.00
11184;BME280;5648;43.628;22.684;2022-10-17T06:02:41;96788.88;;;8.49;100.00
11184;BME280;5648;43.628;22.684;2022-10-17T06:05:07;96796.78;;;8.49;100.00
11184;BME280;5648;43.628;22.684;2022-10-17T06:07:32;96801.44;;;8.55;100.00
11184;BME280;5648;43.628;22.684;2022-10-17T06:09:58;96791.72;;;8.56;100.00
11184;BME280;5648;43.628;22.684;2022-10-17T06:12:24;96803.47;;;8.61;100.00
11184;BME280;5648;43.628;22.684;2022-10-17T06:14:49;96800.88;;;8.70;100.00
11184;BME280;5648;43.628;22.684;2022-10-17T06:17:15;96799.13;;;8.78;100.00
11184;BME280;5648;43.628;22.684;2022-10-17T06:19:40;96802.44;;;8.80;100.00
11184;BME280;5648;43.628;22.684;2022-10-17T06:22:06;96806.25;;;8.86;100.00
11184;BME280;5648;43.628;22.684;2022-10-17T06:24:31;96807.94;;;8.87;100.00
11184;BME280;5648;43.628;22.684;2022-10-17T06:26:57;96812.91;;;8.90;100.00
11184;BME280;5648;43.628;22.684;2022-10-17T06:29:23;96818.38;;;8.97;100.00
11184;BME280;5648;43.628;22.684;2022-10-17T06:31:48;96824.16;;;9.00;100.00
11184;BME280;5648;43.628;22.684;2022-10-17T06:34:14;96813.81;;;9.07;100.00
11184;BME280;5648;43.628;22.684;2022-10-17T06:36:39;96815.47;;;9.08;100.00
11184;BME280;5648;43.628;22.684;2022-10-17T06:39:05;96821.16;;;9.21;100.00
11184;BME280;5648;43.628;22.684;2022-10-17T06:41:30;96817.34;;;9.15;100.00
11184;BME280;5648;43.628;22.684;2022-10-17T06:43:56;96820.50;;;9.27;100.00
11184;BME280;5648;43.628;22.684;2022-10-17T06:46:21;96823.72;;;9.39;100.00
11184;BME280;5648;43.628;22.684;2022-10-17T06:48:49;96817.09;;;9.35;100.00
11184;BME280;5648;43.628;22.684;2022-10-17T06:51:15;96828.56;;;9.51;100.00
11184;BME280;5648;43.628;22.684;2022-10-17T06:53:40;96832.84;;;9.52;100.00
11184;BME280;5648;43.628;22.684;2022-10-17T06:56:07;96835.38;;;9.62;100.00
11184;BME280;5648;43.628;22.684;2022-10-17T06:58:35;96829.88;;;9.56;100.00
11184;BME280;5648;43.628;22.684;2022-10-17T07:01:12;96841.66;;;9.61;100.00
11184;BME280;5648;43.628;22.684;2022-10-17T07:03:38;96833.41;;;9.64;100.00
11184;BME280;5648;43.628;22.684;2022-10-17T07:06:05;96831.47;;;9.74;100.00
11184;BME280;5648;43.628;22.684;2022-10-17T07:08:31;96838.78;;;9.89;100.00
11184;BME280;5648;43.628;22.684;2022-10-17T07:11:11;96843.72;;;9.92;100.00
11184;BME280;5648;43.628;22.684;2022-10-17T07:13:38;96834.50;;;9.96;100.00
11184;BME280;5648;43.628;22.684;2022-10-17T07:16:04;96835.53;;;10.19;100.00
11184;BME280;5648;43.628;22.684;2022-10-17T07:18:29;96847.66;;;10.30;100.00
11184;BME280;5648;43.628;22.684;2022-10-17T07:20:55;96847.31;;;10.41;100.00
11184;BME280;5648;43.628;22.684;2022-10-17T07:23:21;96846.19;;;10.44;100.00
11184;BME280;5648;43.628;22.684;2022-10-17T07:25:47;96852.13;;;10.54;100.00
11184;BME280;5648;43.628;22.684;2022-10-17T07:28:13;96856.94;;;10.66;100.00
11184;BME280;5648;43.628;22.684;2022-10-17T07:30:39;96847.66;;;10.54;100.00
11184;BME280;5648;43.628;22.684;2022-10-17T07:33:04;96861.59;;;10.73;100.00
11184;BME280;5648;43.628;22.684;2022-10-17T07:35:30;96862.72;;;10.62;100.00
11184;BME280;5648;43.628;22.684;2022-10-17T07:37:55;96852.47;;;10.67;100.00
11184;BME280;5648;43.628;22.684;2022-10-17T07:40:21;96863.72;;;10.77;100.00
11184;BME280;5648;43.628;22.684;2022-10-17T07:42:47;96849.16;;;10.81;100.00
11184;BME280;5648;43.628;22.684;2022-10-17T07:45:12;96857.13;;;10.89;100.00
11184;BME280;5648;43.628;22.684;2022-10-17T07:47:37;96853.47;;;10.90;100.00
11184;BME280;5648;43.628;22.684;2022-10-17T07:50:04;96863.69;;;11.10;100.00
11184;BME280;5648;43.628;22.684;2022-10-17T07:52:30;96858.09;;;11.13;100.00
11184;BME280;5648;43.628;22.684;2022-10-17T07:54:55;96856.03;;;11.47;100.00
11184;BME280;5648;43.628;22.684;2022-10-17T07:57:21;96847.44;;;11.45;100.00
11184;BME280;5648;43.628;22.684;2022-10-17T07:59:46;96847.88;;;11.57;100.00
11184;BME280;5648;43.628;22.684;2022-10-17T08:02:26;96854.63;;;11.68;100.00
11184;BME280;5648;43.628;22.684;2022-10-17T08:04:52;96855.44;;;11.76;100.00
11184;BME280;5648;43.628;22.684;2022-10-17T08:07:18;96851.28;;;11.82;100.00
11184;BME280;5648;43.628;22.684;2022-10-17T08:09:44;96848.09;;;11.95;100.00
11184;BME280;5648;43.628;22.684;2022-10-17T08:12:10;96843.59;;;11.95;100.00
11184;BME280;5648;43.628;22.684;2022-10-17T08:14:36;96850.22;;;11.99;100.00
11184;BME280;5648;43.628;22.684;2022-10-17T08:17:03;96840.09;;;12.03;100.00
11184;BME280;5648;43.628;22.684;2022-10-17T08:19:29;96847.50;;;12.15;100.00
11184;BME280;5648;43.628;22.684;2022-10-17T08:21:54;96848.84;;;12.11;100.00
11184;BME280;5648;43.628;22.684;2022-10-17T08:24:21;96853.88;;;12.29;100.00
11184;BME280;5648;43.628;22.684;2022-10-17T08:26:46;96852.69;;;12.32;100.00
11184;BME280;5648;43.628;22.684;2022-10-17T08:29:13;96856.63;;;12.36;100.00
11184;BME280;5648;43.628;22.684;2022-10-17T08:31:39;96853.47;;;12.40;100.00
11184;BME280;5648;43.628;22.684;2022-10-17T08:34:05;96853.13;;;12.43;100.00
11184;BME280;5648;43.628;22.684;2022-10-17T08:36:30;96855.72;;;12.52;100.00
11184;BME280;5648;43.628;22.684;2022-10-17T08:38:56;96859.19;;;12.52;100.00
11184;BME280;5648;43.628;22.684;2022-10-17T08:46:36;96853.84;;;12.83;100.00
11184;BME280;5648;43.628;22.684;2022-10-17T08:49:13;96855.78;;;13.04;100.00
11184;BME280;5648;43.628;22.684;2022-10-17T08:51:48;96848.75;;;12.96;100.00
11184;BME280;5648;43.628;22.684;2022-10-17T08:54:37;96855.44;;;13.07;100.00
11184;BME280;5648;43.628;22.684;2022-10-17T08:57:17;96857.00;;;13.16;100.00
11184;BME280;5648;43.628;22.684;2022-10-17T08:59:43;96862.75;;;13.28;100.00
11184;BME280;5648;43.628;22.684;2022-10-17T09:03:33;96864.16;;;13.39;100.00
11184;BME280;5648;43.628;22.684;2022-10-17T09:05:52;96858.72;;;13.47;100.00
11184;BME280;5648;43.628;22.684;2022-10-17T09:08:36;96863.13;;;13.40;100.00
11184;BME280;5648;43.628;22.684;2022-10-17T09:11:15;96868.53;;;13.61;100.00
11184;BME280;5648;43.628;22.684;2022-10-17T09:17:01;96861.69;;;13.81;88.75
11184;BME280;5648;43.628;22.684;2022-10-17T09:19:35;96873.63;;;14.07;68.60
11184;BME280;5648;43.628;22.684;2022-10-17T09:22:22;96875.00;;;14.17;85.16
11184;BME280;5648;43.628;22.684;2022-10-17T09:24:58;96867.91;;;14.39;75.88
11184;BME280;5648;43.628;22.684;2022-10-17T09:27:43;96864.03;;;14.57;64.11
11184;BME280;5648;43.628;22.684;2022-10-17T09:32:57;96863.06;;;14.85;62.47
11184;BME280;5648;43.628;22.684;2022-10-17T09:35:24;96860.84;;;14.89;66.02
11184;BME280;5648;43.628;22.684;2022-10-17T09:37:52;96856.81;;;14.93;61.49
11184;BME280;5648;43.628;22.684;2022-10-17T09:40:24;96859.69;;;14.98;61.91
11184;BME280;5648;43.628;22.684;2022-10-17T09:42:51;96869.06;;;15.15;65.20
11184;BME280;5648;43.628;22.684;2022-10-17T09:45:19;96859.50;;;15.21;62.44
11184;BME280;5648;43.628;22.684;2022-10-17T09:48:13;96855.41;;;15.25;62.95
11184;BME280;5648;43.628;22.684;2022-10-17T09:50:41;96850.75;;;15.34;57.32
11184;BME280;5648;43.628;22.684;2022-10-17T09:53:15;96861.59;;;15.32;57.47
11184;BME280;5648;43.628;22.684;2022-10-17T09:55:54;96867.75;;;15.33;56.91
11184;BME280;5648;43.628;22.684;2022-10-17T09:58:21;96849.19;;;15.46;56.45
11184;BME280;5648;43.628;22.684;2022-10-17T10:00:47;96860.97;;;15.58;58.72
11184;BME280;5648;43.628;22.684;2022-10-17T10:03:23;96857.16;;;15.67;56.36
11184;BME280;5648;43.628;22.684;2022-10-17T10:06:00;96851.09;;;15.80;58.12
11184;BME280;5648;43.628;22.684;2022-10-17T10:08:33;96851.09;;;15.80;57.79
11184;BME280;5648;43.628;22.684;2022-10-17T10:11:06;96845.00;;;15.93;55.40
11184;BME280;5648;43.628;22.684;2022-10-17T10:13:33;96840.97;;;16.10;62.68
11184;BME280;5648;43.628;22.684;2022-10-17T10:16:15;96853.69;;;16.15;56.32
11184;BME280;5648;43.628;22.684;2022-10-17T10:18:42;96832.78;;;16.25;56.80
11184;BME280;5648;43.628;22.684;2022-10-17T10:21:17;96844.97;;;16.41;61.92
11184;BME280;5648;43.628;22.684;2022-10-17T10:24:04;96845.53;;;16.23;55.12
11184;BME280;5648;43.628;22.684;2022-10-17T10:26:42;96847.38;;;16.29;56.70
11184;BME280;5648;43.628;22.684;2022-10-17T10:31:51;96844.38;;;16.58;59.03
11184;BME280;5648;43.628;22.684;2022-10-17T10:39:26;96834.44;;;16.32;61.72
11184;BME280;5648;43.628;22.684;2022-10-17T10:41:52;96845.97;;;16.46;64.26
11184;BME280;5648;43.628;22.684;2022-10-17T10:44:22;96841.22;;;16.28;63.41
11184;BME280;5648;43.628;22.684;2022-10-17T10:47:05;96842.13;;;15.94;72.00
11184;BME280;5648;43.628;22.684;2022-10-17T10:49:31;96832.28;;;15.95;73.41
11184;BME280;5648;43.628;22.684;2022-10-17T10:51:59;96831.47;;;16.01;64.68
11184;BME280;5648;43.628;22.684;2022-10-17T10:54:35;96818.13;;;16.01;68.48
11184;BME280;5648;43.628;22.684;2022-10-17T10:57:03;96826.69;;;15.90;70.10
11184;BME280;5648;43.628;22.684;2022-10-17T10:59:38;96826.06;;;15.81;72.22
11184;BME280;5648;43.628;22.684;2022-10-17T11:05:18;96835.34;;;15.92;74.53
11184;BME280;5648;43.628;22.684;2022-10-17T11:13:33;96816.31;;;16.08;71.73
11184;BME280;5648;43.628;22.684;2022-10-17T11:18:47;96819.63;;;16.10;72.52
11184;BME280;5648;43.628;22.684;2022-10-17T11:24:20;96822.91;;;16.12;74.10
11184;BME280;5648;43.628;22.684;2022-10-17T11:26:59;96819.81;;;16.15;74.99
11184;BME280;5648;43.628;22.684;2022-10-17T11:29:28;96815.50;;;16.14;75.81
11184;BME280;5648;43.628;22.684;2022-10-17T11:31:56;96814.69;;;16.14;76.90
11184;BME280;5648;43.628;22.684;2022-10-17T11:34:26;96804.84;;;16.14;74.81
11184;BME280;5648;43.628;22.684;2022-10-17T11:36:56;96799.94;;;16.24;76.84
11184;BME280;5648;43.628;22.684;2022-10-17T11:39:42;96804.91;;;16.41;73.99
11184;BME280;5648;43.628;22.684;2022-10-17T11:42:17;96807.00;;;16.52;71.46
11184;BME280;5648;43.628;22.684;2022-10-17T11:44:44;96797.94;;;16.46;71.79
11184;BME280;5648;43.628;22.684;2022-10-17T11:52:34;96795.91;;;16.48;67.39
11184;BME280;5648;43.628;22.684;2022-10-17T11:55:28;96797.13;;;16.52;67.59
11184;BME280;5648;43.628;22.684;2022-10-17T11:58:00;96799.19;;;16.57;66.15
11184;BME280;5648;43.628;22.684;2022-10-17T12:13:59;96780.75;;;16.95;66.49
11184;BME280;5648;43.628;22.684;2022-10-17T12:24:42;96790.22;;;17.17;66.27
11184;BME280;5648;43.628;22.684;2022-10-17T12:30:01;96769.66;;;16.78;64.38
11184;BME280;5648;43.628;22.684;2022-10-17T12:32:28;96772.94;;;17.00;66.17
11184;BME280;5648;43.628;22.684;2022-10-17T12:34:55;96772.94;;;17.07;65.88
11184;BME280;5648;43.628;22.684;2022-10-17T12:43:45;96770.22;;;17.33;63.47
11184;BME280;5648;43.628;22.684;2022-10-17T12:45:55;96758.50;;;17.34;62.67
11184;BME280;5648;43.628;22.684;2022-10-17T12:53:44;96757.03;;;17.45;62.18
11184;BME280;5648;43.628;22.684;2022-10-17T12:56:18;96760.94;;;17.49;61.20
11184;BME280;5648;43.628;22.684;2022-10-17T12:58:49;96743.81;;;17.57;60.83
11184;BME280;5648;43.628;22.684;2022-10-17T13:01:25;96755.38;;;17.50;59.92
11184;BME280;5648;43.628;22.684;2022-10-17T13:03:52;96757.59;;;17.67;59.58
11184;BME280;5648;43.628;22.684;2022-10-17T13:06:29;96765.84;;;17.52;57.32
11184;BME280;5648;43.628;22.684;2022-10-17T13:09:04;96768.72;;;17.57;58.28
11184;BME280;5648;43.628;22.684;2022-10-17T13:11:32;96769.38;;;17.46;54.88
11184;BME280;5648;43.628;22.684;2022-10-17T13:14:01;96751.13;;;17.23;55.30
11184;BME280;5648;43.628;22.684;2022-10-17T13:16:31;96761.94;;;17.55;55.27
11184;BME280;5648;43.628;22.684;2022-10-17T13:18:58;96757.41;;;17.55;55.62
11184;BME280;5648;43.628;22.684;2022-10-17T13:21:24;96761.72;;;17.76;55.63
11184;BME280;5648;43.628;22.684;2022-10-17T13:23:50;96764.38;;;17.76;55.53
11184;BME280;5648;43.628;22.684;2022-10-17T13:26:18;96778.97;;;17.80;55.45
11184;BME280;5648;43.628;22.684;2022-10-17T13:28:48;96767.06;;;17.69;54.26
11184;BME280;5648;43.628;22.684;2022-10-17T13:31:32;96769.91;;;17.68;55.07
11184;BME280;5648;43.628;22.684;2022-10-17T13:34:00;96766.03;;;17.64;55.48
11184;BME280;5648;43.628;22.684;2022-10-17T13:36:28;96778.75;;;17.82;55.06
11184;BME280;5648;43.628;22.684;2022-10-17T13:38:55;96767.25;;;17.68;54.31
11184;BME280;5648;43.628;22.684;2022-10-17T13:41:26;96771.16;;;17.72;54.99
11184;BME280;5648;43.628;22.684;2022-10-17T13:43:52;96776.81;;;17.37;55.20
11184;BME280;5648;43.628;22.684;2022-10-17T13:46:30;96779.44;;;17.44;55.37
11184;BME280;5648;43.628;22.684;2022-10-17T13:48:57;96774.31;;;17.49;56.34
11184;BME280;5648;43.628;22.684;2022-10-17T13:51:25;96772.00;;;17.59;55.07
11184;BME280;5648;43.628;22.684;2022-10-17T13:53:52;96777.56;;;17.58;55.40
11184;BME280;5648;43.628;22.684;2022-10-17T13:56:25;96758.09;;;17.31;55.40
11184;BME280;5648;43.628;22.684;2022-10-17T13:59:39;96765.28;;;17.30;56.05
11184;BME280;5648;43.628;22.684;2022-10-17T14:01:52;96766.97;;;17.18;56.79
11184;BME280;5648;43.628;22.684;2022-10-17T14:04:24;96778.00;;;17.41;56.88
11184;BME280;5648;43.628;22.684;2022-10-17T14:06:49;96776.78;;;17.50;56.76
11184;BME280;5648;43.628;22.684;2022-10-17T14:09:26;96781.13;;;17.38;56.42
11184;BME280;5648;43.628;22.684;2022-10-17T14:14:27;96785.25;;;17.21;57.26
11184;BME280;5648;43.628;22.684;2022-10-17T14:16:53;96762.69;;;16.90;57.64
11184;BME280;5648;43.628;22.684;2022-10-17T14:19:26;96784.44;;;17.01;58.08
11184;BME280;5648;43.628;22.684;2022-10-17T14:22:13;96780.13;;;17.13;59.36
11184;BME280;5648;43.628;22.684;2022-10-17T14:24:38;96768.81;;;17.24;59.25
11184;BME280;5648;43.628;22.684;2022-10-17T14:27:30;96778.66;;;17.30;59.02
11184;BME280;5648;43.628;22.684;2022-10-17T14:30:01;96781.34;;;17.17;58.81
11184;BME280;5648;43.628;22.684;2022-10-17T14:32:29;96773.97;;;17.06;58.92
11184;BME280;5648;43.628;22.684;2022-10-17T14:34:57;96777.47;;;17.00;59.01
11184;BME280;5648;43.628;22.684;2022-10-17T14:37:48;96787.34;;;16.79;58.86
11184;BME280;5648;43.628;22.684;2022-10-17T14:40:15;96786.91;;;16.89;59.08
11184;BME280;5648;43.628;22.684;2022-10-17T14:42:42;96786.09;;;16.88;58.24
11184;BME280;5648;43.628;22.684;2022-10-17T14:45:14;96794.94;;;16.69;58.46
11184;BME280;5648;43.628;22.684;2022-10-17T14:47:48;96778.66;;;16.64;59.19
11184;BME280;5648;43.628;22.684;2022-10-17T14:52:39;96795.09;;;16.61;58.64
11184;BME280;5648;43.628;22.684;2022-10-17T14:55:26;96803.88;;;16.42;59.86
11184;BME280;5648;43.628;22.684;2022-10-17T14:57:51;96787.66;;;16.43;58.72